Time;durP1;ratioP1;P1;durP2;ratioP2;P2;SDS_P1;SDS_P2;PMS_P1;PMS_P2;Temp;Humidity;BMP_temperature;BMP_pressure;BME280_temperature;BME280_humidity;BME280_pressure;Samples;Min_cycle;Max_cycle;Signal;HPM_P1;HPM_P2
2022/05/27 09:06:07;;;;;;;4.93;2.20;;;;;;;17.02;84.64;99589.81;5125398;27;1242580;-80
2022/05/27 09:08:34;;;;;;;7.07;2.53;;;;;;;16.95;83.64;99562.38;5149767;27;20046;-81
2022/05/27 09:11:11;;;;;;;4.43;2.67;;;;;;;16.76;83.94;99594.31;5132721;27;20054;-81
2022/05/27 09:13:46;;;;;;;2.78;1.90;;;;;;;16.59;86.57;99582.91;5143179;27;20392;-80
2022/05/27 09:16:17;;;;;;;2.80;2.00;;;;;;;16.32;87.83;99598.56;5129337;27;20055;-81
2022/05/27 09:18:57;;;;;;;7.70;2.40;;;;;;;15.98;89.63;99576.63;5128697;28;20427;-81
2022/05/27 09:21:33;;;;;;;2.65;2.05;;;;;;;16.00;89.04;99566.28;5128424;27;20054;-80
2022/05/27 09:24:23;;;;;;;4.28;3.17;;;;;;;16.14;88.16;99567.16;5136913;27;20047;-81
2022/05/27 09:26:57;;;;;;;2.40;2.20;;;;;;;16.34;87.79;99577.28;5147162;27;20046;-81
2022/05/27 09:30:00;;;;;;;4.70;2.00;;;;;;;16.35;86.39;99577.06;5136564;27;20043;-81
2022/05/27 09:32:33;;;;;;;2.08;1.88;;;;;;;16.34;85.22;99558.06;5117599;27;20053;-79
2022/05/27 09:35:05;;;;;;;6.45;2.10;;;;;;;16.42;87.40;99561.44;5148978;27;20089;-81
2022/05/27 09:37:39;;;;;;;3.55;1.98;;;;;;;16.39;85.17;99547.28;5149003;27;20046;-82
2022/05/27 09:40:12;;;;;;;2.90;1.98;;;;;;;15.99;84.29;99542.69;5144922;27;20485;-80
2022/05/27 09:42:47;;;;;;;3.05;1.83;;;;;;;16.05;86.79;99571.19;5133961;27;20285;-82
2022/05/27 09:45:13;;;;;;;5.25;1.73;;;;;;;15.79;85.23;99561.03;5139496;27;20036;-81
2022/05/27 09:47:41;;;;;;;2.33;1.88;;;;;;;15.54;87.63;99551.47;5143023;27;20133;-81
2022/05/27 09:50:25;;;;;;;2.70;2.10;;;;;;;15.62;87.48;99566.03;5139353;27;20153;-82
2022/05/27 09:52:58;;;;;;;5.35;2.30;;;;;;;15.55;90.14;99571.47;5143223;27;20051;-81
2022/05/27 09:55:28;;;;;;;8.90;2.58;;;;;;;15.48;89.68;99535.03;5128438;27;20079;-82
2022/05/27 10:21:30;;;;;;;3.08;1.50;;;;;;;17.85;68.06;99500.94;5113956;28;20066;-81
2022/05/27 10:24:14;;;;;;;3.63;1.52;;;;;;;17.79;69.62;99526.59;5117791;27;20573;-79
2022/05/27 10:26:41;;;;;;;1.83;1.50;;;;;;;17.34;71.58;99508.28;5122175;27;20050;-82
2022/05/27 10:29:11;;;;;;;2.70;1.77;;;;;;;17.43;72.63;99522.63;5123400;27;20489;-80
2022/05/27 10:31:50;;;;;;;3.25;1.67;;;;;;;17.40;75.09;99517.56;5119197;27;20058;-81
2022/05/27 10:34:39;;;;;;;5.13;1.48;;;;;;;17.12;71.69;99494.06;5113853;27;20054;-83
2022/05/27 11:17:17;;;;;;;2.38;1.40;;;;;;;17.84;73.06;99478.13;5122470;27;20418;-81
2022/05/27 11:20:12;;;;;;;3.30;1.38;;;;;;;18.07;71.52;99468.44;5117858;27;20046;-82
2022/05/27 11:22:46;;;;;;;5.93;1.65;;;;;;;18.05;70.70;99473.31;5128322;27;20042;-81
2022/05/27 11:25:40;;;;;;;2.05;1.30;;;;;;;18.35;70.67;99470.69;5120779;27;20160;-82
2022/05/27 11:28:19;;;;;;;1.77;1.08;;;;;;;18.39;68.45;99457.28;5117992;27;20040;-81
2022/05/27 11:31:00;;;;;;;3.42;1.08;;;;;;;18.29;67.52;99467.97;5123953;27;20410;-81
2022/05/27 11:33:44;;;;;;;3.42;1.55;;;;;;;18.34;70.36;99463.47;5127104;27;20071;-82
2022/05/27 11:36:31;;;;;;;2.75;1.20;;;;;;;18.43;67.09;99453.00;5117233;27;20050;-81
2022/05/27 11:39:29;;;;;;;1.33;1.20;;;;;;;18.62;66.58;99458.50;5116426;27;20210;-81
2022/05/27 11:42:06;;;;;;;3.00;1.27;;;;;;;18.58;65.62;99464.47;5116289;27;20062;-80
2022/05/27 11:44:42;;;;;;;3.42;1.10;;;;;;;18.56;68.36;99452.88;5125295;27;20040;-80
2022/05/27 11:47:42;;;;;;;2.45;0.80;;;;;;;18.76;69.04;99435.25;5122519;27;20528;-82
2022/05/27 11:50:22;;;;;;;2.65;1.30;;;;;;;18.87;64.51;99440.00;5127103;27;20050;-82
2022/05/27 11:53:03;;;;;;;3.83;0.90;;;;;;;18.86;66.46;99437.47;5111168;28;20524;-81
2022/05/27 11:55:50;;;;;;;0.90;0.73;;;;;;;19.04;65.63;99447.59;5109337;27;20050;-81
2022/05/27 11:58:19;;;;;;;2.78;1.17;;;;;;;19.34;65.03;99449.50;5118921;27;20135;-82
2022/05/27 12:00:51;;;;;;;6.03;1.05;;;;;;;19.54;62.78;99449.19;5111799;28;20508;-81
2022/05/27 12:03:27;;;;;;;3.30;2.17;;;;;;;19.48;61.58;99436.34;5119685;27;20050;-82
2022/05/27 12:06:10;;;;;;;2.47;0.88;;;;;;;19.37;60.50;99444.34;5118077;27;20058;-83
2022/05/27 12:08:43;;;;;;;2.05;0.90;;;;;;;19.59;60.28;99433.63;5121605;27;20051;-81
2022/05/27 12:11:16;;;;;;;2.47;0.73;;;;;;;19.83;61.85;99435.59;5111009;27;20043;-82
2022/05/27 12:13:47;;;;;;;2.05;0.80;;;;;;;19.66;61.26;99419.75;5115655;27;20039;-81
2022/05/27 12:16:16;;;;;;;2.53;1.05;;;;;;;19.74;59.05;99432.34;5119375;27;20047;-82
2022/05/27 12:18:48;;;;;;;2.70;1.15;;;;;;;19.09;61.54;99404.50;5117899;27;20039;-82
2022/05/27 12:21:20;;;;;;;2.83;1.13;;;;;;;19.07;62.86;99428.72;5120030;27;20122;-82
2022/05/27 12:23:55;;;;;;;1.35;0.93;;;;;;;19.25;64.19;99424.19;5113569;27;20369;-80
2022/05/27 13:03:06;;;;;;;3.45;0.85;;;;;;;19.83;59.37;99416.28;5120860;28;20537;-83
2022/05/27 13:06:03;;;;;;;3.97;1.05;;;;;;;19.68;61.43;99397.44;5131842;28;20051;-81
2022/05/27 13:08:35;;;;;;;1.60;1.25;;;;;;;20.13;58.81;99424.44;5116536;28;20130;-82
2022/05/27 13:11:01;;;;;;;2.08;0.93;;;;;;;20.04;59.40;99423.09;5131815;28;20050;-81
2022/05/27 13:13:31;;;;;;;2.83;1.23;;;;;;;19.72;59.66;99406.88;5131329;28;20043;-79
2022/05/27 13:16:09;;;;;;;5.38;1.02;;;;;;;19.78;60.93;99423.38;5129764;28;20055;-80
2022/05/27 13:18:43;;;;;;;2.72;1.20;;;;;;;19.64;58.55;99405.31;5117154;28;20040;-79
2022/05/27 13:21:13;;;;;;;1.05;0.88;;;;;;;20.13;60.74;99400.44;5131453;28;20063;-80
2022/05/27 13:23:52;;;;;;;4.60;1.10;;;;;;;20.14;59.82;99423.34;5130988;28;20054;-82
2022/05/27 13:46:37;;;;;;;0.77;0.73;;;;;;;19.30;61.49;99405.06;5131755;27;20054;-81
2022/05/27 13:49:11;;;;;;;0.80;0.80;;;;;;;19.44;62.78;99414.78;5124991;27;20048;-80
2022/05/27 13:51:41;;;;;;;2.78;1.20;;;;;;;19.37;63.25;99419.53;5135109;27;20046;-81
2022/05/27 13:54:14;;;;;;;3.35;1.20;;;;;;;19.53;62.67;99411.69;5130425;27;20039;-80
2022/05/27 13:56:45;;;;;;;3.70;1.10;;;;;;;19.72;62.73;99423.44;5121858;27;20043;-81
2022/05/27 13:59:16;;;;;;;4.88;1.23;;;;;;;19.91;63.01;99422.28;5125670;27;20053;-81
2022/05/27 14:01:51;;;;;;;1.65;1.10;;;;;;;19.95;63.16;99420.72;5134797;27;20514;-81
2022/05/27 14:04:24;;;;;;;3.15;0.90;;;;;;;19.66;61.31;99419.75;5131466;27;20059;-82
2022/05/27 14:06:51;;;;;;;1.65;1.00;;;;;;;19.82;61.49;99406.34;5122471;27;20052;-80
2022/05/27 14:09:20;;;;;;;1.00;0.80;;;;;;;19.63;61.10;99411.91;5114225;28;20043;-81
2022/05/27 14:11:50;;;;;;;5.78;0.80;;;;;;;19.83;60.97;99413.50;5112893;27;20074;-82
2022/05/27 14:14:21;;;;;;;;;;;;;;;19.72;63.34;99431.72;5113428;27;20063;-81
2022/05/27 14:16:49;;;;;;;2.65;0.68;;;;;;;19.32;63.86;99438.72;5122531;27;19947;-82
2022/05/27 14:19:21;;;;;;;3.15;1.20;;;;;;;19.25;63.36;99435.22;5134350;27;20054;-81
2022/05/27 14:24:44;;;;;;;1.88;1.08;;;;;;;18.55;65.40;99417.31;5128202;27;20418;-82
2022/05/27 14:27:15;;;;;;;1.70;0.93;;;;;;;18.62;65.85;99430.97;5118100;27;20267;-80
2022/05/27 14:29:42;;;;;;;7.15;1.15;;;;;;;18.72;65.10;99410.06;5113539;28;20457;-81
2022/05/27 14:32:15;;;;;;;1.25;1.00;;;;;;;18.90;64.84;99438.69;5112159;28;20059;-81
2022/05/27 14:34:43;;;;;;;1.17;1.00;;;;;;;18.42;66.68;99412.78;5121925;27;20086;-82
2022/05/27 14:37:19;;;;;;;2.20;1.10;;;;;;;18.51;67.07;99440.84;5114518;27;20127;-82
2022/05/27 14:39:46;;;;;;;4.22;1.88;;;;;;;18.22;69.12;99437.78;5113640;28;20043;-81
2022/05/27 14:42:12;;;;;;;2.45;1.60;;;;;;;17.75;70.24;99427.22;5124691;27;20048;-80
2022/05/27 14:44:41;;;;;;;1.58;1.42;;;;;;;17.97;71.76;99424.09;5127665;27;20479;-81
2022/05/27 14:47:12;;;;;;;1.45;1.35;;;;;;;18.06;70.15;99432.88;5114418;27;20054;-80
2022/05/27 14:49:49;;;;;;;2.10;1.27;;;;;;;17.81;71.13;99434.56;5134078;27;20051;-81
2022/05/27 14:52:23;;;;;;;4.13;1.70;;;;;;;17.75;72.59;99420.88;5124358;27;20051;-81
2022/05/27 14:54:53;;;;;;;1.45;1.15;;;;;;;17.86;74.18;99420.16;5129753;27;20047;-82
2022/05/27 14:57:24;;;;;;;;;;;;;;;18.07;72.78;99426.31;5140275;27;20482;-81
2022/05/27 14:59:54;;;;;;;1.35;1.20;;;;;;;18.25;71.96;99431.84;5130196;27;19926;-81
2022/05/27 15:02:24;;;;;;;1.38;1.27;;;;;;;18.13;72.68;99441.91;5121420;28;20052;-82
2022/05/27 15:05:03;;;;;;;1.92;1.10;;;;;;;17.89;73.73;99414.22;5128502;27;20055;-81
2022/05/27 15:07:43;;;;;;;6.78;1.40;;;;;;;18.08;74.23;99439.84;5135795;27;20055;-80
2022/05/27 15:10:19;;;;;;;4.78;1.00;;;;;;;18.21;72.97;99420.44;5131811;27;20059;-81
2022/05/27 15:12:46;;;;;;;1.23;0.90;;;;;;;18.29;73.13;99418.44;5127219;27;20509;-80
2022/05/27 15:15:27;;;;;;;2.72;1.20;;;;;;;18.29;73.48;99401.94;5132409;27;20047;-82
2022/05/27 15:18:06;;;;;;;4.63;1.13;;;;;;;18.39;72.65;99416.00;5113339;28;20050;-81
2022/05/27 15:20:32;;;;;;;2.22;0.85;;;;;;;18.22;71.49;99397.34;5120932;27;20044;-81
2022/05/27 15:23:02;;;;;;;4.38;2.15;;;;;;;18.73;71.35;99422.78;5121733;27;20052;-83
2022/05/27 15:25:32;;;;;;;;;;;;;;;18.92;69.70;99412.59;5114759;28;20138;-83
2022/05/27 15:33:58;;;;;;;2.30;1.17;;;;;;;19.30;66.27;99394.03;5118894;27;20050;-82
2022/05/27 15:36:25;;;;;;;1.40;1.00;;;;;;;19.13;64.50;99380.06;5113168;28;20047;-83
2022/05/27 15:38:52;;;;;;;2.78;1.10;;;;;;;19.18;66.04;99379.34;5113242;27;20063;-82
2022/05/27 15:41:21;;;;;;;3.80;1.10;;;;;;;19.49;66.92;99391.16;5124664;27;20122;-82
2022/05/27 15:43:49;;;;;;;4.13;1.02;;;;;;;19.50;65.98;99370.81;5132698;27;20485;-83
2022/05/27 15:46:19;;;;;;;1.98;1.42;;;;;;;19.72;66.41;99406.88;5131358;27;20508;-83
2022/05/27 15:48:47;;;;;;;1.58;1.02;;;;;;;19.73;62.14;99398.38;5122060;27;20058;-84
2022/05/27 15:51:15;;;;;;;1.65;1.00;;;;;;;19.88;65.12;99394.34;5120909;27;20555;-81
2022/05/27 15:53:42;;;;;;;1.65;0.82;;;;;;;19.74;62.59;99382.69;5111566;28;20467;-83
2022/05/27 15:56:09;;;;;;;3.00;1.10;;;;;;;20.07;60.91;99395.06;5111908;27;20339;-82
2022/05/27 15:58:36;;;;;;;1.70;0.90;;;;;;;20.46;61.43;99387.88;5120872;27;20051;-83
2022/05/27 16:01:05;;;;;;;0.98;0.90;;;;;;;20.68;57.89;99387.25;5112354;27;20047;-84
2022/05/27 16:03:32;;;;;;;1.48;0.90;;;;;;;20.38;59.06;99391.00;5119487;27;20071;-83
2022/05/27 16:06:02;;;;;;;3.03;0.80;;;;;;;20.06;61.64;99390.59;5132138;27;20051;-81
2022/05/27 16:08:30;;;;;;;1.00;0.80;;;;;;;20.31;59.49;99379.28;5132491;27;20124;-83
2022/05/27 16:10:58;;;;;;;12.10;3.00;;;;;;;20.21;62.27;99359.75;5132870;27;20055;-82
2022/05/27 16:13:25;;;;;;;1.25;0.95;;;;;;;20.01;59.77;99384.97;5121192;27;20051;-81
2022/05/27 16:18:37;;;;;;;1.90;0.90;;;;;;;19.99;60.36;99368.66;5130436;27;20050;-84
2022/05/27 16:21:06;;;;;;;5.43;1.20;;;;;;;19.87;61.09;99371.44;5124431;27;20043;-83
2022/05/27 16:23:33;;;;;;;2.50;0.80;;;;;;;20.14;60.39;99388.31;5117384;27;20059;-82
2022/05/27 16:26:00;;;;;;;0.95;0.65;;;;;;;20.21;60.98;99368.84;5111704;28;20083;-83
2022/05/27 16:28:26;;;;;;;1.13;0.90;;;;;;;20.04;60.00;99367.91;5111762;28;20051;-83
2022/05/27 16:30:53;;;;;;;2.88;1.00;;;;;;;19.69;60.21;99377.88;5119491;27;20043;-81
2022/05/27 16:33:20;;;;;;;1.25;0.90;;;;;;;19.50;62.40;99357.03;5130724;27;20058;-82
2022/05/27 16:35:48;;;;;;;1.73;1.13;;;;;;;19.92;62.73;99376.22;5130675;27;20080;-82
2022/05/27 16:38:17;;;;;;;1.33;0.98;;;;;;;19.81;61.08;99358.59;5122441;27;20039;-84
2022/05/27 16:40:43;;;;;;;3.17;0.90;;;;;;;20.07;61.69;99359.19;5116475;27;20047;-84
2022/05/27 16:43:10;;;;;;;3.03;1.05;;;;;;;19.82;61.30;99345.66;5111331;28;20054;-82
2022/05/27 16:45:38;;;;;;;5.38;1.15;;;;;;;19.90;61.18;99354.41;5112160;28;20406;-83
2022/05/27 16:48:05;;;;;;;4.43;1.10;;;;;;;19.85;60.82;99358.97;5120028;27;20126;-84
2022/05/27 16:50:32;;;;;;;3.00;1.05;;;;;;;20.16;59.97;99374.28;5126388;27;20086;-85
2022/05/27 16:52:59;;;;;;;1.27;0.93;;;;;;;19.64;62.03;99348.25;5126774;27;20651;-83
2022/05/27 16:55:30;;;;;;;1.73;1.13;;;;;;;19.56;62.51;99347.78;5114255;27;20047;-84
2022/05/27 16:57:57;;;;;;;0.98;0.90;;;;;;;19.40;63.52;99350.16;5128178;28;20047;-83
2022/05/27 17:00:27;;;;;;;2.30;1.05;;;;;;;19.39;65.09;99355.91;5112084;28;20051;-84
2022/05/27 17:02:54;;;;;;;1.88;0.90;;;;;;;19.33;62.64;99346.69;5111440;28;20105;-85
2022/05/27 17:05:24;;;;;;;2.80;1.15;;;;;;;19.51;63.27;99339.38;5117920;28;20047;-84
2022/05/27 17:07:52;;;;;;;1.33;0.98;;;;;;;19.55;64.59;99365.41;5139890;28;20051;-85
2022/05/27 17:10:19;;;;;;;0.88;0.80;;;;;;;19.23;65.09;99358.28;5132819;28;20040;-83
2022/05/27 17:12:50;;;;;;;3.15;1.02;;;;;;;19.13;66.16;99332.41;5146790;28;20051;-84
2022/05/27 17:15:18;;;;;;;;;;;;;;;19.07;67.46;99350.69;5116395;28;20043;-86
2022/05/27 17:17:45;;;;;;;2.58;1.40;;;;;;;19.00;67.32;99344.44;5118641;28;19955;-86
2022/05/27 17:20:12;;;;;;;0.73;0.73;;;;;;;18.92;66.83;99337.38;5117028;27;20135;-85
2022/05/27 17:22:38;;;;;;;1.20;0.90;;;;;;;18.72;67.28;99348.66;5126613;27;20043;-84
2022/05/27 17:25:07;;;;;;;4.03;0.93;;;;;;;18.78;69.12;99349.66;5126292;27;20870;-85
2022/05/27 17:27:33;;;;;;;0.80;0.80;;;;;;;18.60;68.85;99358.78;5107109;27;20130;-85
2022/05/27 17:30:02;;;;;;;1.50;0.90;;;;;;;18.43;70.37;99315.38;5124879;27;20108;-85
2022/05/27 17:32:28;;;;;;;1.48;1.00;;;;;;;18.33;70.68;99332.44;5117858;27;20058;-84
2022/05/27 17:34:55;;;;;;;3.67;0.88;;;;;;;18.49;70.15;99353.00;5127083;27;20051;-85
2022/05/27 17:37:25;;;;;;;0.93;0.80;;;;;;;18.53;70.09;99343.22;5121214;27;20383;-85
2022/05/27 17:39:52;;;;;;;2.55;1.00;;;;;;;18.45;69.71;99346.25;5113797;27;20032;-86
2022/05/27 17:42:18;;;;;;;1.08;0.98;;;;;;;18.19;70.54;99333.69;5124438;27;20100;-84
2022/05/27 17:44:45;;;;;;;2.63;0.70;;;;;;;18.20;71.52;99329.84;5117405;27;20044;-84
2022/05/27 17:52:46;;;;;;;2.08;1.02;;;;;;;18.01;72.46;99329.88;5111972;28;20046;-86
2022/05/27 17:55:13;;;;;;;3.55;1.02;;;;;;;17.96;73.84;99356.38;5115464;27;20116;-86
2022/05/27 17:57:39;;;;;;;1.48;0.90;;;;;;;17.89;74.66;99308.84;5123900;27;20047;-85
2022/05/27 18:00:07;;;;;;;0.95;0.75;;;;;;;17.94;75.17;99342.84;5119311;27;20574;-84
2022/05/27 18:02:38;;;;;;;2.00;1.00;;;;;;;17.62;74.24;99326.47;5117713;27;20100;-85
2022/05/27 18:05:05;;;;;;;1.13;0.80;;;;;;;17.69;75.37;99346.50;5120509;27;20561;-85
2022/05/27 18:07:32;;;;;;;1.25;1.15;;;;;;;17.76;76.06;99340.91;5120503;27;20565;-85
2022/05/27 18:09:59;;;;;;;2.00;0.95;;;;;;;17.66;75.82;99346.13;5120253;27;20051;-85
2022/05/27 18:12:26;;;;;;;4.80;1.10;;;;;;;17.34;77.34;99318.69;5116692;27;20534;-86
2022/05/27 18:14:53;;;;;;;3.45;1.20;;;;;;;17.32;77.69;99342.81;5111530;27;20052;-86
2022/05/27 18:17:20;;;;;;;1.75;1.08;;;;;;;17.30;79.10;99348.53;5126180;27;20134;-86
2022/05/27 18:19:48;;;;;;;1.30;1.10;;;;;;;17.33;79.25;99350.00;5116556;27;20048;-86
2022/05/27 18:22:14;;;;;;;1.15;1.05;;;;;;;17.15;79.80;99329.66;5114975;27;20134;-86
2022/05/27 18:24:46;;;;;;;2.72;0.88;;;;;;;17.08;80.00;99319.78;5109944;27;20039;-86
2022/05/27 18:27:13;;;;;;;4.38;1.10;;;;;;;17.10;80.15;99328.63;5117749;27;20510;-87
2022/05/27 18:29:40;;;;;;;1.00;0.90;;;;;;;16.99;80.67;99310.97;5123093;27;20262;-87
2022/05/27 18:32:09;;;;;;;0.80;0.80;;;;;;;16.90;81.80;99320.53;5117444;27;20050;-86
2022/05/27 18:34:39;;;;;;;1.30;0.80;;;;;;;16.80;81.95;99329.22;5117473;27;20050;-86
2022/05/27 18:37:08;;;;;;;3.53;1.33;;;;;;;16.86;83.23;99316.53;5112424;27;20047;-86
2022/05/27 18:39:35;;;;;;;4.28;1.15;;;;;;;16.92;83.56;99348.63;5119367;27;20040;-85
2022/05/27 18:42:01;;;;;;;7.10;1.30;;;;;;;16.71;84.62;99336.06;5111601;27;20048;-86
2022/05/27 18:44:28;;;;;;;1.27;1.02;;;;;;;16.85;86.07;99347.81;5119496;27;20051;-86
2022/05/27 18:46:55;;;;;;;1.60;1.50;;;;;;;16.75;84.64;99364.75;5120675;27;20552;-86
2022/05/27 18:49:21;;;;;;;3.58;1.50;;;;;;;16.73;85.30;99348.50;5111844;27;20044;-85
2022/05/27 18:51:48;;;;;;;2.10;1.60;;;;;;;16.33;85.67;99328.66;5112089;27;20109;-84
2022/05/27 18:54:17;;;;;;;2.00;1.20;;;;;;;16.53;87.10;99348.63;5110785;27;20049;-85
2022/05/27 18:56:43;;;;;;;1.75;1.35;;;;;;;16.42;87.45;99346.56;5120202;27;20138;-86
2022/05/27 18:59:12;;;;;;;4.88;2.47;;;;;;;16.37;88.10;99354.63;5130945;27;20086;-87
2022/05/27 19:01:39;;;;;;;2.28;1.40;;;;;;;16.14;88.68;99353.22;5121171;27;20051;-86
2022/05/27 19:04:06;;;;;;;3.75;1.50;;;;;;;16.20;88.31;99355.09;5109015;27;20151;-86
2022/05/27 19:06:33;;;;;;;2.85;1.42;;;;;;;16.13;89.23;99357.03;5112192;28;20101;-86
2022/05/27 19:09:01;;;;;;;2.47;1.55;;;;;;;16.26;89.72;99375.34;5112841;27;20043;-86
2022/05/27 19:11:30;;;;;;;2.88;1.30;;;;;;;16.14;89.37;99342.25;5114590;27;20138;-86
2022/05/27 19:14:00;;;;;;;2.60;1.90;;;;;;;16.19;90.52;99364.38;5110664;27;20048;-86
2022/05/27 19:16:26;;;;;;;2.30;1.90;;;;;;;15.98;90.23;99340.00;5125234;27;20289;-86
2022/05/27 19:21:39;;;;;;;5.03;1.30;;;;;;;15.95;92.20;99368.69;5119619;27;20082;-87
2022/05/27 19:24:08;;;;;;;3.15;1.30;;;;;;;15.82;92.49;99360.50;5118011;27;20051;-86
2022/05/27 19:26:36;;;;;;;2.30;1.77;;;;;;;15.77;92.96;99366.59;5110846;27;20797;-86
2022/05/27 19:29:04;;;;;;;2.10;1.48;;;;;;;15.67;92.92;99347.84;5120865;27;20442;-86
2022/05/27 19:31:31;;;;;;;2.38;1.75;;;;;;;15.77;91.89;99352.88;5112525;27;20044;-85
2022/05/27 19:33:58;;;;;;;2.40;1.90;;;;;;;15.77;92.92;99374.81;5120209;27;20054;-86
2022/05/27 19:36:25;;;;;;;2.97;1.90;;;;;;;15.66;94.20;99370.00;5121599;27;20043;-86
2022/05/27 19:38:52;;;;;;;2.90;2.00;;;;;;;15.65;94.59;99379.25;5122135;27;20075;-85
2022/05/27 19:41:20;;;;;;;2.38;1.58;;;;;;;15.42;95.80;99379.72;5110523;27;20067;-86
2022/05/27 19:43:50;;;;;;;3.45;1.98;;;;;;;15.30;95.55;99365.81;5109060;27;20039;-86
2022/05/27 19:46:19;;;;;;;9.65;6.85;;;;;;;15.38;97.26;99398.44;5122899;27;20059;-86
2022/05/27 19:48:46;;;;;;;10.82;4.03;;;;;;;15.32;97.80;99391.91;5129366;27;20058;-85
2022/05/27 19:51:17;;;;;;;4.43;2.50;;;;;;;15.08;97.76;99371.47;5110371;27;20039;-87
2022/05/27 19:53:44;;;;;;;4.43;2.42;;;;;;;15.00;99.36;99396.31;5113905;27;20079;-86
2022/05/27 19:56:11;;;;;;;3.67;2.30;;;;;;;14.72;100.00;99383.59;5111595;27;20579;-86
2022/05/27 20:01:25;;;;;;;3.60;2.25;;;;;;;14.69;100.00;99394.97;5114656;27;20507;-86
2022/05/27 20:06:36;;;;;;;2.97;1.90;;;;;;;14.43;100.00;99412.94;5116362;27;20046;-85
2022/05/27 20:09:04;;;;;;;2.63;1.63;;;;;;;14.33;100.00;99401.53;5119918;27;20078;-85
2022/05/27 20:11:34;;;;;;;4.47;1.92;;;;;;;14.13;100.00;99385.88;5110126;28;20048;-85
2022/05/27 20:14:10;;;;;;;3.80;1.70;;;;;;;14.03;100.00;99381.84;5109420;28;20059;-85
2022/05/27 20:16:40;;;;;;;5.55;3.00;;;;;;;14.05;100.00;99415.28;5124396;27;20051;-85
2022/05/27 20:19:08;;;;;;;3.97;1.85;;;;;;;14.00;100.00;99415.91;5113720;27;20260;-85
2022/05/27 20:21:34;;;;;;;2.63;1.98;;;;;;;13.92;100.00;99402.38;5123237;27;20048;-85
2022/05/27 20:24:02;;;;;;;2.35;1.90;;;;;;;13.66;100.00;99387.50;5122825;27;20147;-86
2022/05/27 20:26:29;;;;;;;6.30;2.30;;;;;;;13.59;100.00;99397.53;5122886;27;20086;-86
2022/05/27 20:28:59;;;;;;;5.25;2.20;;;;;;;13.52;100.00;99363.84;5115113;27;20643;-86
2022/05/27 20:31:26;;;;;;;2.58;2.05;;;;;;;13.54;100.00;99370.81;5113359;28;20074;-85
2022/05/27 21:00:49;;;;;;;2.97;2.42;;;;;;;12.71;100.00;99381.41;5132132;28;20046;-85
2022/05/27 21:03:16;;;;;;;3.17;2.25;;;;;;;12.63;100.00;99401.47;5124023;28;20144;-86
2022/05/27 21:05:43;;;;;;;4.55;2.50;;;;;;;12.48;100.00;99371.50;5116027;28;20143;-85
2022/05/27 21:08:50;;;;;;;3.03;2.50;;;;;;;12.52;100.00;99356.41;5124078;28;20047;-85
2022/05/27 21:10:56;;;;;;;4.50;2.33;;;;;;;12.58;100.00;99376.63;5118704;28;20059;-85
2022/05/27 21:13:23;;;;;;;4.53;2.38;;;;;;;12.60;100.00;99373.72;5123637;28;20050;-85
2022/05/27 21:15:52;;;;;;;3.67;1.95;;;;;;;12.59;100.00;99370.16;5131803;28;20412;-85
2022/05/27 21:18:19;;;;;;;2.55;2.15;;;;;;;12.50;100.00;99353.06;5119870;28;20069;-85
2022/05/27 21:20:46;;;;;;;3.55;2.20;;;;;;;12.56;100.00;99370.53;5117418;28;20047;-85
2022/05/27 21:23:13;;;;;;;3.72;2.33;;;;;;;12.47;100.00;99371.69;5112636;28;20051;-85
2022/05/27 21:25:41;;;;;;;5.82;2.22;;;;;;;12.54;100.00;99380.78;5116999;28;20050;-85
2022/05/27 21:28:08;;;;;;;2.97;2.17;;;;;;;12.52;100.00;99386.41;5121811;28;20129;-85
2022/05/27 21:30:35;;;;;;;3.72;2.22;;;;;;;12.48;100.00;99354.28;5123371;28;20047;-85
2022/05/27 21:33:04;;;;;;;4.40;2.30;;;;;;;12.55;100.00;99357.94;5113371;28;20062;-85
2022/05/27 21:35:31;;;;;;;3.63;2.20;;;;;;;12.65;100.00;99368.53;5119500;28;20105;-85
2022/05/27 21:37:58;;;;;;;3.25;2.05;;;;;;;12.76;100.00;99381.66;5119431;28;20135;-85
2022/05/27 21:40:24;;;;;;;3.65;2.30;;;;;;;12.86;100.00;99387.63;5111799;28;20150;-85
2022/05/27 21:42:51;;;;;;;3.65;2.00;;;;;;;12.92;100.00;99377.84;5110743;28;20051;-84
2022/05/27 21:45:18;;;;;;;3.78;2.08;;;;;;;12.76;100.00;99359.81;5118225;28;20146;-84
2022/05/27 21:47:45;;;;;;;3.35;2.38;;;;;;;12.81;100.00;99361.97;5121038;28;20413;-84
2022/05/27 21:50:13;;;;;;;3.33;2.40;;;;;;;13.12;100.00;99385.38;5113737;28;20039;-85
2022/05/27 21:52:40;;;;;;;2.70;2.10;;;;;;;13.13;100.00;99376.13;5114829;28;20051;-85
2022/05/27 22:28:46;;;;;;;3.92;2.40;;;;;;;13.53;100.00;99387.41;5121775;27;20038;-85
2022/05/27 22:31:16;;;;;;;5.03;2.63;;;;;;;13.60;100.00;99411.00;5123590;27;20522;-85
2022/05/27 22:33:42;;;;;;;;;;;;;;;13.64;100.00;99400.53;5121480;27;20067;-85
2022/05/27 22:36:13;;;;;;;3.53;2.22;;;;;;;13.65;100.00;99404.94;5116643;27;20278;-84
2022/05/27 23:18:25;;;;;;;6.72;3.33;;;;;;;13.20;100.00;99385.22;5113436;27;20078;-85
2022/05/27 23:21:05;;;;;;;4.32;3.00;;;;;;;13.08;100.00;99369.38;5115696;27;20043;-85
2022/05/27 23:23:32;;;;;;;3.33;2.58;;;;;;;13.05;100.00;99369.78;5114765;27;20050;-85
2022/05/27 23:26:01;;;;;;;5.00;2.50;;;;;;;13.16;100.00;99394.81;5121858;27;20466;-85
2022/05/27 23:28:28;;;;;;;8.57;2.83;;;;;;;13.19;100.00;99389.00;5122432;27;20040;-84
2022/05/27 23:30:57;;;;;;;7.47;3.00;;;;;;;13.22;100.00;99386.72;5119987;27;20073;-85
2022/05/27 23:33:27;;;;;;;3.70;2.92;;;;;;;13.06;100.00;99366.00;5112198;27;20043;-85
2022/05/27 23:35:59;;;;;;;9.65;3.70;;;;;;;13.24;100.00;99370.13;5117213;27;20085;-85
2022/05/27 23:38:26;;;;;;;8.55;3.17;;;;;;;13.31;100.00;99386.56;5121706;27;20071;-84
2022/05/27 23:40:53;;;;;;;9.00;3.00;;;;;;;13.31;100.00;99387.44;5123488;27;20388;-85
